sensor_id;sensor_type;location;lat;lon;timestamp;P1;P2;P0
64138;PMS5003;50435;43.700;-79.318;2023-03-14T00:01:34;5;5;
64138;PMS5003;50435;43.700;-79.318;2023-03-14T00:04:03;7;7;
64138;PMS5003;50435;43.700;-79.318;2023-03-14T00:06:31;9;5;
64138;PMS5003;50435;43.700;-79.318;2023-03-14T00:08:58;4;4;
64138;PMS5003;50435;43.700;-79.318;2023-03-14T00:11:25;4;4;
64138;PMS5003;50435;43.700;-79.318;2023-03-14T00:13:53;5;5;
64138;PMS5003;50435;43.700;-79.318;2023-03-14T00:16:20;4;4;
64138;PMS5003;50435;43.700;-79.318;2023-03-14T00:18:47;4;4;
64138;PMS5003;50435;43.700;-79.318;2023-03-14T00:21:15;5;5;
64138;PMS5003;50435;43.700;-79.318;2023-03-14T00:23:43;5;5;
64138;PMS5003;50435;43.700;-79.318;2023-03-14T00:26:11;5;3;
64138;PMS5003;50435;43.700;-79.318;2023-03-14T00:28:40;5;5;
64138;PMS5003;50435;43.700;-79.318;2023-03-14T00:31:09;7;5;
64138;PMS5003;50435;43.700;-79.318;2023-03-14T00:33:38;7;7;
64138;PMS5003;50435;43.700;-79.318;2023-03-14T00:36:07;4;4;
64138;PMS5003;50435;43.700;-79.318;2023-03-14T00:38:36;7;5;
64138;PMS5003;50435;43.700;-79.318;2023-03-14T00:41:05;5;5;
64138;PMS5003;50435;43.700;-79.318;2023-03-14T00:43:33;3;3;
64138;PMS5003;50435;43.700;-79.318;2023-03-14T00:46:01;4;4;
64138;PMS5003;50435;43.700;-79.318;2023-03-14T00:48:30;4;4;
64138;PMS5003;50435;43.700;-79.318;2023-03-14T00:50:57;8;5;
64138;PMS5003;50435;43.700;-79.318;2023-03-14T00:53:24;4;4;
64138;PMS5003;50435;43.700;-79.318;2023-03-14T00:55:51;7;5;
64138;PMS5003;50435;43.700;-79.318;2023-03-14T00:58:19;5;5;
64138;PMS5003;50435;43.700;-79.318;2023-03-14T01:00:46;5;5;
64138;PMS5003;50435;43.700;-79.318;2023-03-14T01:03:14;5;5;
64138;PMS5003;50435;43.700;-79.318;2023-03-14T01:05:42;4;4;
64138;PMS5003;50435;43.700;-79.318;2023-03-14T01:08:09;5;5;
64138;PMS5003;50435;43.700;-79.318;2023-03-14T01:10:37;3;3;
64138;PMS5003;50435;43.700;-79.318;2023-03-14T01:13:05;5;5;
64138;PMS5003;50435;43.700;-79.318;2023-03-14T01:15:34;3;3;
64138;PMS5003;50435;43.700;-79.318;2023-03-14T01:18:01;4;3;
64138;PMS5003;50435;43.700;-79.318;2023-03-14T01:20:29;4;4;
64138;PMS5003;50435;43.700;-79.318;2023-03-14T01:22:57;4;2;
64138;PMS5003;50435;43.700;-79.318;2023-03-14T01:25:24;2;2;
64138;PMS5003;50435;43.700;-79.318;2023-03-14T01:27:51;1;1;
64138;PMS5003;50435;43.700;-79.318;2023-03-14T01:30:19;2;2;
64138;PMS5003;50435;43.700;-79.318;2023-03-14T01:32:46;1;1;
64138;PMS5003;50435;43.700;-79.318;2023-03-14T01:35:13;2;2;
64138;PMS5003;50435;43.700;-79.318;2023-03-14T01:37:41;3;1;
64138;PMS5003;50435;43.700;-79.318;2023-03-14T01:40:10;2;2;
64138;PMS5003;50435;43.700;-79.318;2023-03-14T01:42:38;1;1;
64138;PMS5003;50435;43.700;-79.318;2023-03-14T01:45:53;2;2;
64138;PMS5003;50435;43.700;-79.318;2023-03-14T01:48:44;4;3;
64138;PMS5003;50435;43.700;-79.318;2023-03-14T01:51:18;1;1;
64138;PMS5003;50435;43.700;-79.318;2023-03-14T01:53:48;1;1;
64138;PMS5003;50435;43.700;-79.318;2023-03-14T01:56:17;1;1;
64138;PMS5003;50435;43.700;-79.318;2023-03-14T01:58:46;2;2;
64138;PMS5003;50435;43.700;-79.318;2023-03-14T02:01:17;1;1;
64138;PMS5003;50435;43.700;-79.318;2023-03-14T02:03:47;2;2;
64138;PMS5003;50435;43.700;-79.318;2023-03-14T02:06:20;1;1;
64138;PMS5003;50435;43.700;-79.318;2023-03-14T02:08:50;1;1;
64138;PMS5003;50435;43.700;-79.318;2023-03-14T02:11:19;0;0;
64138;PMS5003;50435;43.700;-79.318;2023-03-14T02:13:47;1;1;
64138;PMS5003;50435;43.700;-79.318;2023-03-14T02:16:16;1;1;
64138;PMS5003;50435;43.700;-79.318;2023-03-14T02:18:43;0;0;
64138;PMS5003;50435;43.700;-79.318;2023-03-14T02:21:12;1;1;
64138;PMS5003;50435;43.700;-79.318;2023-03-14T02:23:48;2;1;
64138;PMS5003;50435;43.700;-79.318;2023-03-14T02:26:26;1;1;
64138;PMS5003;50435;43.700;-79.318;2023-03-14T02:28:58;1;1;
64138;PMS5003;50435;43.700;-79.318;2023-03-14T02:31:26;0;0;
64138;PMS5003;50435;43.700;-79.318;2023-03-14T02:33:53;1;1;
64138;PMS5003;50435;43.700;-79.318;2023-03-14T02:36:22;1;1;
64138;PMS5003;50435;43.700;-79.318;2023-03-14T02:38:52;4;2;
64138;PMS5003;50435;43.700;-79.318;2023-03-14T02:41:25;1;1;
64138;PMS5003;50435;43.700;-79.318;2023-03-14T02:43:52;1;1;
64138;PMS5003;50435;43.700;-79.318;2023-03-14T02:46:20;0;0;
64138;PMS5003;50435;43.700;-79.318;2023-03-14T02:48:48;1;1;
64138;PMS5003;50435;43.700;-79.318;2023-03-14T02:51:20;1;1;
64138;PMS5003;50435;43.700;-79.318;2023-03-14T02:53:49;1;1;
64138;PMS5003;50435;43.700;-79.318;2023-03-14T02:56:17;0;0;
64138;PMS5003;50435;43.700;-79.318;2023-03-14T02:58:44;3;2;
64138;PMS5003;50435;43.700;-79.318;2023-03-14T03:01:12;1;1;
64138;PMS5003;50435;43.700;-79.318;2023-03-14T03:03:39;1;1;
64138;PMS5003;50435;43.700;-79.318;2023-03-14T03:06:07;2;2;
64138;PMS5003;50435;43.700;-79.318;2023-03-14T03:08:34;2;2;
64138;PMS5003;50435;43.700;-79.318;2023-03-14T03:11:01;2;1;
64138;PMS5003;50435;43.700;-79.318;2023-03-14T03:13:28;1;1;
64138;PMS5003;50435;43.700;-79.318;2023-03-14T03:15:56;2;2;
64138;PMS5003;50435;43.700;-79.318;2023-03-14T03:18:23;1;1;
64138;PMS5003;50435;43.700;-79.318;2023-03-14T03:20:50;2;2;
64138;PMS5003;50435;43.700;-79.318;2023-03-14T03:23:18;2;2;
64138;PMS5003;50435;43.700;-79.318;2023-03-14T03:25:48;1;1;
64138;PMS5003;50435;43.700;-79.318;2023-03-14T03:28:16;2;2;
64138;PMS5003;50435;43.700;-79.318;2023-03-14T03:30:44;1;1;
64138;PMS5003;50435;43.700;-79.318;2023-03-14T03:33:12;2;2;
64138;PMS5003;50435;43.700;-79.318;2023-03-14T03:35:44;1;1;
64138;PMS5003;50435;43.700;-79.318;2023-03-14T03:38:13;1;1;
64138;PMS5003;50435;43.700;-79.318;2023-03-14T03:40:42;3;3;
64138;PMS5003;50435;43.700;-79.318;2023-03-14T03:43:10;2;2;
64138;PMS5003;50435;43.700;-79.318;2023-03-14T03:45:37;1;1;
64138;PMS5003;50435;43.700;-79.318;2023-03-14T03:48:05;1;1;
64138;PMS5003;50435;43.700;-79.318;2023-03-14T03:50:32;3;3;
64138;PMS5003;50435;43.700;-79.318;2023-03-14T03:52:59;2;2;
64138;PMS5003;50435;43.700;-79.318;2023-03-14T03:55:26;4;4;
64138;PMS5003;50435;43.700;-79.318;2023-03-14T03:57:54;2;2;
64138;PMS5003;50435;43.700;-79.318;2023-03-14T04:00:21;2;2;
64138;PMS5003;50435;43.700;-79.318;2023-03-14T04:02:49;3;3;
64138;PMS5003;50435;43.700;-79.318;2023-03-14T04:05:16;1;1;
64138;PMS5003;50435;43.700;-79.318;2023-03-14T04:07:44;2;2;
64138;PMS5003;50435;43.700;-79.318;2023-03-14T04:10:11;3;3;
64138;PMS5003;50435;43.700;-79.318;2023-03-14T04:12:39;2;2;
64138;PMS5003;50435;43.700;-79.318;2023-03-14T04:15:07;2;2;
64138;PMS5003;50435;43.700;-79.318;2023-03-14T04:17:34;3;3;
64138;PMS5003;50435;43.700;-79.318;2023-03-14T04:20:02;2;2;
64138;PMS5003;50435;43.700;-79.318;2023-03-14T04:22:30;2;2;
64138;PMS5003;50435;43.700;-79.318;2023-03-14T04:24:57;1;1;
64138;PMS5003;50435;43.700;-79.318;2023-03-14T04:27:25;2;2;
64138;PMS5003;50435;43.700;-79.318;2023-03-14T04:29:52;4;3;
64138;PMS5003;50435;43.700;-79.318;2023-03-14T04:32:20;4;2;
64138;PMS5003;50435;43.700;-79.318;2023-03-14T04:34:48;2;2;
64138;PMS5003;50435;43.700;-79.318;2023-03-14T04:37:15;3;2;
64138;PMS5003;50435;43.700;-79.318;2023-03-14T04:39:42;1;1;
64138;PMS5003;50435;43.700;-79.318;2023-03-14T04:42:10;2;2;
64138;PMS5003;50435;43.700;-79.318;2023-03-14T04:44:37;2;2;
64138;PMS5003;50435;43.700;-79.318;2023-03-14T04:47:05;6;3;
64138;PMS5003;50435;43.700;-79.318;2023-03-14T04:49:32;2;2;
64138;PMS5003;50435;43.700;-79.318;2023-03-14T04:51:59;2;2;
64138;PMS5003;50435;43.700;-79.318;2023-03-14T04:54:27;2;2;
64138;PMS5003;50435;43.700;-79.318;2023-03-14T04:56:54;7;3;
64138;PMS5003;50435;43.700;-79.318;2023-03-14T04:59:21;2;2;
64138;PMS5003;50435;43.700;-79.318;2023-03-14T05:01:49;4;4;
64138;PMS5003;50435;43.700;-79.318;2023-03-14T05:04:16;2;2;
64138;PMS5003;50435;43.700;-79.318;2023-03-14T05:06:44;4;4;
64138;PMS5003;50435;43.700;-79.318;2023-03-14T05:09:11;2;2;
64138;PMS5003;50435;43.700;-79.318;2023-03-14T05:11:38;2;2;
64138;PMS5003;50435;43.700;-79.318;2023-03-14T05:14:06;1;1;
64138;PMS5003;50435;43.700;-79.318;2023-03-14T05:16:33;2;2;
64138;PMS5003;50435;43.700;-79.318;2023-03-14T05:19:00;2;2;
64138;PMS5003;50435;43.700;-79.318;2023-03-14T05:21:28;3;3;
64138;PMS5003;50435;43.700;-79.318;2023-03-14T05:23:55;2;2;
64138;PMS5003;50435;43.700;-79.318;2023-03-14T05:26:23;7;4;
64138;PMS5003;50435;43.700;-79.318;2023-03-14T05:28:50;2;2;
64138;PMS5003;50435;43.700;-79.318;2023-03-14T05:31:18;2;2;
64138;PMS5003;50435;43.700;-79.318;2023-03-14T05:33:46;2;2;
64138;PMS5003;50435;43.700;-79.318;2023-03-14T05:36:13;3;3;
64138;PMS5003;50435;43.700;-79.318;2023-03-14T05:38:40;3;3;
64138;PMS5003;50435;43.700;-79.318;2023-03-14T05:41:08;2;2;
64138;PMS5003;50435;43.700;-79.318;2023-03-14T05:43:35;3;3;
64138;PMS5003;50435;43.700;-79.318;2023-03-14T05:46:02;4;3;
64138;PMS5003;50435;43.700;-79.318;2023-03-14T05:48:30;4;3;
64138;PMS5003;50435;43.700;-79.318;2023-03-14T05:50:57;2;2;
64138;PMS5003;50435;43.700;-79.318;2023-03-14T05:53:24;2;2;
64138;PMS5003;50435;43.700;-79.318;2023-03-14T05:55:52;3;3;
64138;PMS5003;50435;43.700;-79.318;2023-03-14T05:58:20;3;3;
64138;PMS5003;50435;43.700;-79.318;2023-03-14T06:00:47;2;2;
64138;PMS5003;50435;43.700;-79.318;2023-03-14T06:03:15;2;2;
64138;PMS5003;50435;43.700;-79.318;2023-03-14T06:05:42;3;3;
64138;PMS5003;50435;43.700;-79.318;2023-03-14T06:08:10;4;2;
64138;PMS5003;50435;43.700;-79.318;2023-03-14T06:10:37;2;2;
64138;PMS5003;50435;43.700;-79.318;2023-03-14T06:13:04;3;3;
64138;PMS5003;50435;43.700;-79.318;2023-03-14T06:15:32;4;3;
64138;PMS5003;50435;43.700;-79.318;2023-03-14T06:17:59;2;2;
64138;PMS5003;50435;43.700;-79.318;2023-03-14T06:20:27;2;2;
64138;PMS5003;50435;43.700;-79.318;2023-03-14T06:22:54;2;2;
64138;PMS5003;50435;43.700;-79.318;2023-03-14T06:25:21;2;2;
64138;PMS5003;50435;43.700;-79.318;2023-03-14T06:27:49;2;2;
64138;PMS5003;50435;43.700;-79.318;2023-03-14T06:30:16;3;3;
64138;PMS5003;50435;43.700;-79.318;2023-03-14T06:32:44;1;1;
64138;PMS5003;50435;43.700;-79.318;2023-03-14T06:35:12;1;1;
64138;PMS5003;50435;43.700;-79.318;2023-03-14T06:37:39;3;1;
64138;PMS5003;50435;43.700;-79.318;2023-03-14T06:40:08;3;3;
64138;PMS5003;50435;43.700;-79.318;2023-03-14T06:42:38;2;2;
64138;PMS5003;50435;43.700;-79.318;2023-03-14T06:45:06;2;2;
64138;PMS5003;50435;43.700;-79.318;2023-03-14T06:47:34;3;1;
64138;PMS5003;50435;43.700;-79.318;2023-03-14T06:50:02;2;2;
64138;PMS5003;50435;43.700;-79.318;2023-03-14T06:52:29;2;2;
64138;PMS5003;50435;43.700;-79.318;2023-03-14T06:54:56;1;1;
64138;PMS5003;50435;43.700;-79.318;2023-03-14T06:57:24;2;2;
64138;PMS5003;50435;43.700;-79.318;2023-03-14T06:59:51;3;3;
64138;PMS5003;50435;43.700;-79.318;2023-03-14T07:02:18;3;3;
64138;PMS5003;50435;43.700;-79.318;2023-03-14T07:04:46;3;3;
64138;PMS5003;50435;43.700;-79.318;2023-03-14T07:07:13;3;3;
64138;PMS5003;50435;43.700;-79.318;2023-03-14T07:09:40;1;1;
64138;PMS5003;50435;43.700;-79.318;2023-03-14T07:12:08;1;1;
64138;PMS5003;50435;43.700;-79.318;2023-03-14T07:14:35;2;2;
64138;PMS5003;50435;43.700;-79.318;2023-03-14T07:17:03;1;1;
64138;PMS5003;50435;43.700;-79.318;2023-03-14T07:19:30;3;2;
64138;PMS5003;50435;43.700;-79.318;2023-03-14T07:21:57;3;3;
64138;PMS5003;50435;43.700;-79.318;2023-03-14T07:24:25;2;1;
64138;PMS5003;50435;43.700;-79.318;2023-03-14T07:26:52;1;1;
64138;PMS5003;50435;43.700;-79.318;2023-03-14T07:29:20;4;4;
64138;PMS5003;50435;43.700;-79.318;2023-03-14T07:31:47;2;2;
64138;PMS5003;50435;43.700;-79.318;2023-03-14T07:34:15;1;1;
64138;PMS5003;50435;43.700;-79.318;2023-03-14T07:36:43;3;3;
64138;PMS5003;50435;43.700;-79.318;2023-03-14T07:39:10;2;2;
64138;PMS5003;50435;43.700;-79.318;2023-03-14T07:41:38;2;2;
64138;PMS5003;50435;43.700;-79.318;2023-03-14T07:44:05;3;2;
64138;PMS5003;50435;43.700;-79.318;2023-03-14T07:46:32;1;1;
64138;PMS5003;50435;43.700;-79.318;2023-03-14T07:49:00;1;1;
64138;PMS5003;50435;43.700;-79.318;2023-03-14T07:51:27;1;1;
64138;PMS5003;50435;43.700;-79.318;2023-03-14T07:53:55;2;2;
64138;PMS5003;50435;43.700;-79.318;2023-03-14T07:56:22;1;1;
64138;PMS5003;50435;43.700;-79.318;2023-03-14T07:58:49;3;3;
64138;PMS5003;50435;43.700;-79.318;2023-03-14T08:01:17;2;2;
64138;PMS5003;50435;43.700;-79.318;2023-03-14T08:03:44;1;1;
64138;PMS5003;50435;43.700;-79.318;2023-03-14T08:06:12;4;4;
64138;PMS5003;50435;43.700;-79.318;2023-03-14T08:08:40;1;1;
64138;PMS5003;50435;43.700;-79.318;2023-03-14T08:11:07;3;2;
64138;PMS5003;50435;43.700;-79.318;2023-03-14T08:13:35;1;1;
64138;PMS5003;50435;43.700;-79.318;2023-03-14T08:16:02;1;1;
64138;PMS5003;50435;43.700;-79.318;2023-03-14T08:18:31;1;1;
64138;PMS5003;50435;43.700;-79.318;2023-03-14T08:20:58;1;1;
64138;PMS5003;50435;43.700;-79.318;2023-03-14T08:23:25;1;1;
64138;PMS5003;50435;43.700;-79.318;2023-03-14T08:25:53;0;0;
64138;PMS5003;50435;43.700;-79.318;2023-03-14T08:28:20;2;2;
64138;PMS5003;50435;43.700;-79.318;2023-03-14T08:30:48;2;2;
64138;PMS5003;50435;43.700;-79.318;2023-03-14T08:33:16;1;1;
64138;PMS5003;50435;43.700;-79.318;2023-03-14T08:35:43;1;1;
64138;PMS5003;50435;43.700;-79.318;2023-03-14T08:38:11;2;2;
64138;PMS5003;50435;43.700;-79.318;2023-03-14T08:40:38;0;0;
64138;PMS5003;50435;43.700;-79.318;2023-03-14T08:43:06;1;1;
64138;PMS5003;50435;43.700;-79.318;2023-03-14T08:45:33;2;0;
64138;PMS5003;50435;43.700;-79.318;2023-03-14T08:48:00;0;0;
64138;PMS5003;50435;43.700;-79.318;2023-03-14T08:50:28;0;0;
64138;PMS5003;50435;43.700;-79.318;2023-03-14T08:52:55;0;0;
64138;PMS5003;50435;43.700;-79.318;2023-03-14T08:55:23;0;0;
64138;PMS5003;50435;43.700;-79.318;2023-03-14T08:57:50;1;1;
64138;PMS5003;50435;43.700;-79.318;2023-03-14T09:00:18;0;0;
64138;PMS5003;50435;43.700;-79.318;2023-03-14T09:02:46;0;0;
64138;PMS5003;50435;43.700;-79.318;2023-03-14T09:05:13;0;0;
64138;PMS5003;50435;43.700;-79.318;2023-03-14T09:07:41;0;0;
64138;PMS5003;50435;43.700;-79.318;2023-03-14T09:10:09;0;0;
64138;PMS5003;50435;43.700;-79.318;2023-03-14T09:12:37;0;0;
64138;PMS5003;50435;43.700;-79.318;2023-03-14T09:15:05;0;0;
64138;PMS5003;50435;43.700;-79.318;2023-03-14T09:17:33;1;1;
64138;PMS5003;50435;43.700;-79.318;2023-03-14T09:20:01;0;0;
64138;PMS5003;50435;43.700;-79.318;2023-03-14T09:22:29;1;1;
64138;PMS5003;50435;43.700;-79.318;2023-03-14T09:24:56;0;0;
64138;PMS5003;50435;43.700;-79.318;2023-03-14T09:27:23;0;0;
64138;PMS5003;50435;43.700;-79.318;2023-03-14T09:29:51;0;0;
64138;PMS5003;50435;43.700;-79.318;2023-03-14T09:32:19;0;0;
64138;PMS5003;50435;43.700;-79.318;2023-03-14T09:34:47;1;1;
64138;PMS5003;50435;43.700;-79.318;2023-03-14T09:37:14;1;0;
64138;PMS5003;50435;43.700;-79.318;2023-03-14T09:39:41;1;1;
64138;PMS5003;50435;43.700;-79.318;2023-03-14T09:42:11;0;0;
64138;PMS5003;50435;43.700;-79.318;2023-03-14T09:44:45;1;1;
64138;PMS5003;50435;43.700;-79.318;2023-03-14T09:47:19;0;0;
64138;PMS5003;50435;43.700;-79.318;2023-03-14T09:49:49;1;1;
64138;PMS5003;50435;43.700;-79.318;2023-03-14T09:52:17;0;0;
64138;PMS5003;50435;43.700;-79.318;2023-03-14T09:54:49;0;0;
64138;PMS5003;50435;43.700;-79.318;2023-03-14T09:57:18;0;0;
64138;PMS5003;50435;43.700;-79.318;2023-03-14T09:59:48;1;1;
64138;PMS5003;50435;43.700;-79.318;2023-03-14T10:02:18;0;0;
64138;PMS5003;50435;43.700;-79.318;2023-03-14T10:04:47;0;0;
64138;PMS5003;50435;43.700;-79.318;2023-03-14T10:07:17;0;0;
64138;PMS5003;50435;43.700;-79.318;2023-03-14T10:09:48;0;0;
64138;PMS5003;50435;43.700;-79.318;2023-03-14T10:12:17;1;1;
64138;PMS5003;50435;43.700;-79.318;2023-03-14T10:14:46;1;1;
64138;PMS5003;50435;43.700;-79.318;2023-03-14T10:17:16;0;0;
64138;PMS5003;50435;43.700;-79.318;2023-03-14T10:19:54;1;1;
64138;PMS5003;50435;43.700;-79.318;2023-03-14T10:22:23;0;0;
64138;PMS5003;50435;43.700;-79.318;2023-03-14T10:24:56;0;0;
64138;PMS5003;50435;43.700;-79.318;2023-03-14T10:27:28;1;1;
64138;PMS5003;50435;43.700;-79.318;2023-03-14T10:29:58;0;0;
64138;PMS5003;50435;43.700;-79.318;2023-03-14T10:32:28;0;0;
64138;PMS5003;50435;43.700;-79.318;2023-03-14T10:35:04;0;0;
64138;PMS5003;50435;43.700;-79.318;2023-03-14T10:37:34;0;0;
64138;PMS5003;50435;43.700;-79.318;2023-03-14T10:40:03;0;0;
64138;PMS5003;50435;43.700;-79.318;2023-03-14T10:42:31;0;0;
64138;PMS5003;50435;43.700;-79.318;2023-03-14T10:45:00;0;0;
64138;PMS5003;50435;43.700;-79.318;2023-03-14T10:47:31;1;0;
64138;PMS5003;50435;43.700;-79.318;2023-03-14T10:50:18;1;1;
64138;PMS5003;50435;43.700;-79.318;2023-03-14T10:52:51;0;0;
64138;PMS5003;50435;43.700;-79.318;2023-03-14T10:55:19;0;0;
64138;PMS5003;50435;43.700;-79.318;2023-03-14T10:57:47;0;0;
64138;PMS5003;50435;43.700;-79.318;2023-03-14T11:00:15;0;0;
64138;PMS5003;50435;43.700;-79.318;2023-03-14T11:02:47;1;1;
64138;PMS5003;50435;43.700;-79.318;2023-03-14T11:05:25;1;1;
64138;PMS5003;50435;43.700;-79.318;2023-03-14T11:07:57;1;1;
64138;PMS5003;50435;43.700;-79.318;2023-03-14T11:10:31;0;0;
64138;PMS5003;50435;43.700;-79.318;2023-03-14T11:13:02;0;0;
64138;PMS5003;50435;43.700;-79.318;2023-03-14T11:15:40;0;0;
64138;PMS5003;50435;43.700;-79.318;2023-03-14T11:18:21;0;0;
64138;PMS5003;50435;43.700;-79.318;2023-03-14T11:21:04;0;0;
64138;PMS5003;50435;43.700;-79.318;2023-03-14T11:23:38;0;0;
64138;PMS5003;50435;43.700;-79.318;2023-03-14T11:26:18;0;0;
64138;PMS5003;50435;43.700;-79.318;2023-03-14T11:28:55;0;0;
64138;PMS5003;50435;43.700;-79.318;2023-03-14T11:31:25;2;0;
64138;PMS5003;50435;43.700;-79.318;2023-03-14T11:33:56;0;0;
64138;PMS5003;50435;43.700;-79.318;2023-03-14T11:36:36;0;0;
64138;PMS5003;50435;43.700;-79.318;2023-03-14T11:39:08;1;1;
64138;PMS5003;50435;43.700;-79.318;2023-03-14T11:41:41;1;1;
64138;PMS5003;50435;43.700;-79.318;2023-03-14T11:44:14;0;0;
64138;PMS5003;50435;43.700;-79.318;2023-03-14T11:46:45;1;1;
64138;PMS5003;50435;43.700;-79.318;2023-03-14T11:49:21;0;0;
64138;PMS5003;50435;43.700;-79.318;2023-03-14T11:51:57;0;0;
64138;PMS5003;50435;43.700;-79.318;2023-03-14T11:54:31;0;0;
64138;PMS5003;50435;43.700;-79.318;2023-03-14T11:57:10;0;0;
64138;PMS5003;50435;43.700;-79.318;2023-03-14T11:59:43;1;1;
64138;PMS5003;50435;43.700;-79.318;2023-03-14T12:02:17;1;0;
64138;PMS5003;50435;43.700;-79.318;2023-03-14T12:04:54;1;1;
64138;PMS5003;50435;43.700;-79.318;2023-03-14T12:07:56;0;0;
64138;PMS5003;50435;43.700;-79.318;2023-03-14T12:10:46;0;0;
64138;PMS5003;50435;43.700;-79.318;2023-03-14T12:13:18;0;0;
64138;PMS5003;50435;43.700;-79.318;2023-03-14T12:15:47;0;0;
64138;PMS5003;50435;43.700;-79.318;2023-03-14T12:18:21;1;1;
64138;PMS5003;50435;43.700;-79.318;2023-03-14T12:20:54;0;0;
64138;PMS5003;50435;43.700;-79.318;2023-03-14T12:23:24;1;1;
64138;PMS5003;50435;43.700;-79.318;2023-03-14T12:26:08;2;0;
64138;PMS5003;50435;43.700;-79.318;2023-03-14T12:28:42;0;0;
64138;PMS5003;50435;43.700;-79.318;2023-03-14T12:31:38;1;1;
64138;PMS5003;50435;43.700;-79.318;2023-03-14T12:34:41;0;0;
64138;PMS5003;50435;43.700;-79.318;2023-03-14T12:37:12;1;1;
64138;PMS5003;50435;43.700;-79.318;2023-03-14T12:39:48;2;1;
64138;PMS5003;50435;43.700;-79.318;2023-03-14T12:42:35;1;1;
64138;PMS5003;50435;43.700;-79.318;2023-03-14T12:45:26;1;0;
64138;PMS5003;50435;43.700;-79.318;2023-03-14T12:48:00;0;0;
64138;PMS5003;50435;43.700;-79.318;2023-03-14T12:50:36;1;1;
64138;PMS5003;50435;43.700;-79.318;2023-03-14T12:55:20;1;1;
64138;PMS5003;50435;43.700;-79.318;2023-03-14T12:57:52;1;1;
64138;PMS5003;50435;43.700;-79.318;2023-03-14T13:00:29;2;2;
64138;PMS5003;50435;43.700;-79.318;2023-03-14T13:03:00;1;1;
64138;PMS5003;50435;43.700;-79.318;2023-03-14T13:05:51;0;0;
64138;PMS5003;50435;43.700;-79.318;2023-03-14T13:08:32;0;0;
64138;PMS5003;50435;43.700;-79.318;2023-03-14T13:11:02;1;1;
64138;PMS5003;50435;43.700;-79.318;2023-03-14T13:13:35;0;0;
64138;PMS5003;50435;43.700;-79.318;2023-03-14T13:16:09;2;2;
64138;PMS5003;50435;43.700;-79.318;2023-03-14T13:18:41;1;1;
64138;PMS5003;50435;43.700;-79.318;2023-03-14T13:21:12;0;0;
64138;PMS5003;50435;43.700;-79.318;2023-03-14T13:23:54;0;0;
64138;PMS5003;50435;43.700;-79.318;2023-03-14T13:26:25;1;1;
64138;PMS5003;50435;43.700;-79.318;2023-03-14T13:28:59;0;0;
64138;PMS5003;50435;43.700;-79.318;2023-03-14T13:31:34;2;1;
64138;PMS5003;50435;43.700;-79.318;2023-03-14T13:34:04;0;0;
64138;PMS5003;50435;43.700;-79.318;2023-03-14T13:36:36;2;1;
64138;PMS5003;50435;43.700;-79.318;2023-03-14T13:39:04;0;0;
64138;PMS5003;50435;43.700;-79.318;2023-03-14T13:41:36;0;0;
64138;PMS5003;50435;43.700;-79.318;2023-03-14T13:44:05;0;0;
64138;PMS5003;50435;43.700;-79.318;2023-03-14T13:46:35;1;1;
64138;PMS5003;50435;43.700;-79.318;2023-03-14T13:49:04;1;1;
64138;PMS5003;50435;43.700;-79.318;2023-03-14T13:51:36;0;0;
64138;PMS5003;50435;43.700;-79.318;2023-03-14T13:54:13;1;1;
64138;PMS5003;50435;43.700;-79.318;2023-03-14T13:56:42;0;0;
64138;PMS5003;50435;43.700;-79.318;2023-03-14T13:59:21;1;1;
64138;PMS5003;50435;43.700;-79.318;2023-03-14T14:01:49;1;1;
64138;PMS5003;50435;43.700;-79.318;2023-03-14T14:04:19;0;0;
64138;PMS5003;50435;43.700;-79.318;2023-03-14T14:06:49;0;0;
64138;PMS5003;50435;43.700;-79.318;2023-03-14T14:09:20;1;1;
64138;PMS5003;50435;43.700;-79.318;2023-03-14T14:11:50;0;0;
64138;PMS5003;50435;43.700;-79.318;2023-03-14T14:14:23;1;1;
64138;PMS5003;50435;43.700;-79.318;2023-03-14T14:16:55;1;0;
64138;PMS5003;50435;43.700;-79.318;2023-03-14T14:19:27;0;0;
64138;PMS5003;50435;43.700;-79.318;2023-03-14T14:21:57;2;2;
64138;PMS5003;50435;43.700;-79.318;2023-03-14T14:24:27;1;1;
64138;PMS5003;50435;43.700;-79.318;2023-03-14T14:26:59;1;1;
64138;PMS5003;50435;43.700;-79.318;2023-03-14T14:29:29;0;0;
64138;PMS5003;50435;43.700;-79.318;2023-03-14T14:31:59;1;1;
64138;PMS5003;50435;43.700;-79.318;2023-03-14T14:34:28;2;0;
64138;PMS5003;50435;43.700;-79.318;2023-03-14T14:37:04;2;0;
64138;PMS5003;50435;43.700;-79.318;2023-03-14T14:39:41;0;0;
64138;PMS5003;50435;43.700;-79.318;2023-03-14T14:42:12;0;0;
64138;PMS5003;50435;43.700;-79.318;2023-03-14T14:44:42;1;1;
64138;PMS5003;50435;43.700;-79.318;2023-03-14T14:47:12;0;0;
64138;PMS5003;50435;43.700;-79.318;2023-03-14T14:49:41;0;0;
64138;PMS5003;50435;43.700;-79.318;2023-03-14T14:52:11;0;0;
64138;PMS5003;50435;43.700;-79.318;2023-03-14T14:54:43;0;0;
64138;PMS5003;50435;43.700;-79.318;2023-03-14T14:57:17;0;0;
64138;PMS5003;50435;43.700;-79.318;2023-03-14T14:59:47;0;0;
64138;PMS5003;50435;43.700;-79.318;2023-03-14T15:02:23;0;0;
64138;PMS5003;50435;43.700;-79.318;2023-03-14T15:04:56;2;1;
64138;PMS5003;50435;43.700;-79.318;2023-03-14T15:07:23;1;0;
64138;PMS5003;50435;43.700;-79.318;2023-03-14T15:09:50;0;0;
64138;PMS5003;50435;43.700;-79.318;2023-03-14T15:12:18;1;1;
64138;PMS5003;50435;43.700;-79.318;2023-03-14T15:14:45;0;0;
64138;PMS5003;50435;43.700;-79.318;2023-03-14T15:17:13;0;0;
64138;PMS5003;50435;43.700;-79.318;2023-03-14T15:19:40;0;0;
64138;PMS5003;50435;43.700;-79.318;2023-03-14T15:22:09;0;0;
64138;PMS5003;50435;43.700;-79.318;2023-03-14T15:24:38;0;0;
64138;PMS5003;50435;43.700;-79.318;2023-03-14T15:27:09;0;0;
64138;PMS5003;50435;43.700;-79.318;2023-03-14T15:29:39;1;0;
64138;PMS5003;50435;43.700;-79.318;2023-03-14T15:32:09;1;1;
64138;PMS5003;50435;43.700;-79.318;2023-03-14T15:34:38;0;0;
64138;PMS5003;50435;43.700;-79.318;2023-03-14T15:37:07;0;0;
64138;PMS5003;50435;43.700;-79.318;2023-03-14T15:39:37;1;1;
64138;PMS5003;50435;43.700;-79.318;2023-03-14T15:42:05;0;0;
64138;PMS5003;50435;43.700;-79.318;2023-03-14T15:44:33;0;0;
64138;PMS5003;50435;43.700;-79.318;2023-03-14T15:47:01;0;0;
64138;PMS5003;50435;43.700;-79.318;2023-03-14T15:49:29;0;0;
64138;PMS5003;50435;43.700;-79.318;2023-03-14T15:51:57;0;0;
64138;PMS5003;50435;43.700;-79.318;2023-03-14T15:54:24;2;1;
64138;PMS5003;50435;43.700;-79.318;2023-03-14T15:56:52;1;1;
64138;PMS5003;50435;43.700;-79.318;2023-03-14T15:59:19;0;0;
64138;PMS5003;50435;43.700;-79.318;2023-03-14T16:01:46;0;0;
64138;PMS5003;50435;43.700;-79.318;2023-03-14T16:04:14;0;0;
64138;PMS5003;50435;43.700;-79.318;2023-03-14T16:06:41;0;0;
64138;PMS5003;50435;43.700;-79.318;2023-03-14T16:09:09;0;0;
64138;PMS5003;50435;43.700;-79.318;2023-03-14T16:11:37;0;0;
64138;PMS5003;50435;43.700;-79.318;2023-03-14T16:14:05;1;1;
64138;PMS5003;50435;43.700;-79.318;2023-03-14T16:16:33;0;0;
64138;PMS5003;50435;43.700;-79.318;2023-03-14T16:19:00;3;1;
64138;PMS5003;50435;43.700;-79.318;2023-03-14T16:21:28;0;0;
64138;PMS5003;50435;43.700;-79.318;2023-03-14T16:23:55;0;0;
64138;PMS5003;50435;43.700;-79.318;2023-03-14T16:26:22;0;0;
64138;PMS5003;50435;43.700;-79.318;2023-03-14T16:28:50;0;0;
64138;PMS5003;50435;43.700;-79.318;2023-03-14T16:31:18;0;0;
64138;PMS5003;50435;43.700;-79.318;2023-03-14T16:33:46;1;1;
64138;PMS5003;50435;43.700;-79.318;2023-03-14T16:36:13;2;1;
64138;PMS5003;50435;43.700;-79.318;2023-03-14T16:38:42;1;1;